Terminal Aerodrome Forecast
Issued by NWS Charleston, WV

Current Version | Previous Version | Text Only | Print | Product List | Glossary Off
Versions: 1 2 3 4 5 6 7 8 9 10 11 12 13 14 15 16 17 18 19 20 21 22 23 24

000
FTUS41 KRLX 280903 AAA
TAFHTS
TAF AMD
KHTS 280903Z 2809/2906 22006KT P6SM VCSH FEW006 OVC010
     FM281100 19004KT 3SM BR OVC010
     FM281500 23006KT P6SM BKN022
     FM281700 25008KT P6SM BKN050
     FM290000 27004KT P6SM SCT250=

USA.gov is the U.S. government's official web portal to all federal, state and local government web resources and services.